Time;durP1;ratioP1;P1;durP2;ratioP2;P2;SDS_P1;SDS_P2;PMS_P1;PMS_P2;Temp;Humidity;BMP_temperature;BMP_pressure;BME280_temperature;BME280_humidity;BME280_pressure;Samples;Min_cycle;Max_cycle;Signal;HPM_P1;HPM_P2
2021/08/07 00:00:41;;;;;;;15.40;5.78;;;;;;;;;;4450749;32;20338;-57
2021/08/07 00:03:06;;;;;;;12.77;6.22;;;;;;;;;;4449481;32;20307;-57
2021/08/07 00:05:32;;;;;;;11.18;7.37;;;;;;;;;;4461004;32;20355;-57
2021/08/07 00:07:57;;;;;;;11.07;6.28;;;;;;;;;;4452393;32;20223;-56
2021/08/07 00:10:24;;;;;;;10.85;6.80;;;;;;;;;;4460492;32;20406;-58
2021/08/07 00:12:49;;;;;;;13.80;5.18;;;;;;;;;;4450202;32;20418;-57
2021/08/07 00:15:15;;;;;;;11.73;6.00;;;;;;;;;;4461558;32;20283;-58
2021/08/07 00:17:41;;;;;;;11.00;5.65;;;;;;;;;;4460395;32;20223;-56
2021/08/07 00:20:07;;;;;;;10.23;5.87;;;;;;;;;;4461917;32;20278;-56
2021/08/07 00:22:32;;;;;;;11.93;6.22;;;;;;;;;;4454609;32;20283;-57
2021/08/07 00:24:58;;;;;;;9.20;5.20;;;;;;;;;;4456268;32;20231;-57
2021/08/07 00:27:23;;;;;;;8.75;5.57;;;;;;;;;;4459843;32;20252;-57
2021/08/07 00:29:49;;;;;;;12.52;6.55;;;;;;;;;;4463554;32;20502;-57
2021/08/07 00:32:14;;;;;;;11.20;6.15;;;;;;;;;;4460145;32;20708;-57
2021/08/07 00:34:40;;;;;;;8.13;5.87;;;;;;;;;;4461768;32;20258;-58
2021/08/07 00:37:06;;;;;;;11.60;6.65;;;;;;;;;;4456033;32;20228;-56
2021/08/07 00:39:32;;;;;;;10.75;6.18;;;;;;;;;;4461828;32;20212;-57
2021/08/07 00:41:58;;;;;;;10.70;6.55;;;;;;;;;;4463843;32;20251;-57
2021/08/07 00:44:23;;;;;;;8.93;6.10;;;;;;;;;;4462532;32;20246;-57
2021/08/07 00:46:48;;;;;;;14.57;6.80;;;;;;;;;;4464987;32;20565;-57
2021/08/07 00:49:15;;;;;;;12.32;6.62;;;;;;;;;;4464302;32;20306;-57
2021/08/07 00:51:41;;;;;;;12.93;6.15;;;;;;;;;;4463726;32;20624;-57
2021/08/07 00:54:06;;;;;;;12.10;5.95;;;;;;;;;;4455445;32;20251;-57
2021/08/07 00:56:32;;;;;;;9.73;5.75;;;;;;;;;;4455639;32;20267;-57
2021/08/07 00:58:57;;;;;;;10.02;5.75;;;;;;;;;;4464580;32;20235;-57
2021/08/07 01:01:28;;;;;;;9.02;5.90;;;;;;;;;;4464808;32;20359;-57
2021/08/07 01:03:54;;;;;;;8.95;5.43;;;;;;;;;;4464781;32;20704;-57
2021/08/07 01:06:22;;;;;;;9.15;5.82;;;;;;;;;;4464123;32;20239;-58
2021/08/07 01:08:57;;;;;;;11.15;5.70;;;;;;;;;;4464491;32;20655;-58
2021/08/07 01:11:31;;;;;;;10.18;4.78;;;;;;;;;;4463005;32;20283;-58
2021/08/07 01:14:02;;;;;;;9.55;5.78;;;;;;;;;;4464414;32;20262;-57
2021/08/07 01:16:31;;;;;;;7.80;4.75;;;;;;;;;;4464501;32;20264;-59
2021/08/07 01:18:59;;;;;;;7.30;4.93;;;;;;;;;;4464025;32;20323;-57
2021/08/07 01:21:35;;;;;;;8.75;4.68;;;;;;;;;;4464258;32;20216;-56
2021/08/07 01:24:09;;;;;;;6.30;4.00;;;;;;;;;;4463880;32;20199;-57
2021/08/07 01:26:55;;;;;;;12.55;5.53;;;;;;;;;;4463977;32;20215;-57
2021/08/07 01:29:21;;;;;;;10.75;5.15;;;;;;;;;;4464010;32;20271;-56
2021/08/07 01:31:52;;;;;;;7.72;4.82;;;;;;;;;;4463858;32;20223;-57
2021/08/07 01:34:18;;;;;;;11.07;5.72;;;;;;;;;;4464157;32;20200;-57
2021/08/07 01:36:46;;;;;;;13.35;6.12;;;;;;;;;;4464231;32;20232;-57
2021/08/07 01:39:11;;;;;;;12.32;7.10;;;;;;;;;;4463445;32;20365;-57
2021/08/07 01:41:37;;;;;;;14.55;6.93;;;;;;;;;;4462923;32;20580;-57
2021/08/07 01:44:03;;;;;;;13.70;8.07;;;;;;;;;;4462519;32;20655;-56
2021/08/07 01:46:37;;;;;;;16.30;8.48;;;;;;;;;;4463631;32;20283;-58
2021/08/07 01:49:14;;;;;;;13.88;8.32;;;;;;;;;;4463616;32;20510;-57
2021/08/07 01:51:52;;;;;;;12.50;7.15;;;;;;;;;;4462492;32;20257;-57
2021/08/07 01:54:25;;;;;;;20.45;7.45;;;;;;;;;;4463245;32;20212;-56
2021/08/07 01:56:55;;;;;;;14.05;7.15;;;;;;;;;;4464011;32;20208;-56
2021/08/07 01:59:21;;;;;;;14.77;7.37;;;;;;;;;;4463399;32;20208;-57
2021/08/07 02:01:48;;;;;;;21.98;8.80;;;;;;;;;;4464319;32;20398;-58
2021/08/07 02:04:15;;;;;;;16.55;8.77;;;;;;;;;;4463879;32;20257;-57
2021/08/07 02:06:43;;;;;;;12.15;7.45;;;;;;;;;;4463751;32;20323;-56
2021/08/07 02:09:10;;;;;;;14.45;7.93;;;;;;;;;;4463095;32;20271;-56
2021/08/07 02:11:37;;;;;;;16.00;8.23;;;;;;;;;;4463301;32;20224;-56
2021/08/07 02:14:03;;;;;;;15.07;7.78;;;;;;;;;;4463468;32;20271;-56
2021/08/07 02:16:29;;;;;;;9.77;6.55;;;;;;;;;;4463824;32;20677;-56
2021/08/07 02:18:55;;;;;;;13.02;7.05;;;;;;;;;;4463729;32;20209;-56
2021/08/07 02:21:21;;;;;;;18.15;7.20;;;;;;;;;;4463724;32;20627;-56
2021/08/07 02:23:48;;;;;;;10.43;6.90;;;;;;;;;;4463261;32;20301;-56
2021/08/07 02:26:14;;;;;;;16.45;7.75;;;;;;;;;;4463219;32;20631;-56
2021/08/07 02:28:40;;;;;;;15.02;6.40;;;;;;;;;;4462936;32;20244;-57
2021/08/07 02:31:06;;;;;;;22.15;7.78;;;;;;;;;;4463572;32;20588;-57
2021/08/07 02:33:35;;;;;;;9.35;6.32;;;;;;;;;;4462995;32;20268;-55
2021/08/07 02:36:01;;;;;;;9.45;6.05;;;;;;;;;;4463072;32;20394;-56
2021/08/07 02:38:28;;;;;;;14.27;7.07;;;;;;;;;;4462163;32;20220;-56
2021/08/07 02:40:58;;;;;;;9.77;6.05;;;;;;;;;;4463524;32;20514;-56
2021/08/07 02:43:24;;;;;;;6.15;4.90;;;;;;;;;;4462966;32;20208;-56
2021/08/07 02:45:51;;;;;;;11.07;5.20;;;;;;;;;;4463245;32;20351;-57
2021/08/07 02:48:17;;;;;;;13.18;5.07;;;;;;;;;;4462917;32;20250;-56
2021/08/07 02:50:44;;;;;;;10.23;5.75;;;;;;;;;;4463117;32;20316;-57
2021/08/07 02:53:11;;;;;;;8.45;5.62;;;;;;;;;;4461780;32;20252;-56
2021/08/07 02:55:38;;;;;;;10.82;6.62;;;;;;;;;;4463014;32;20216;-56
2021/08/07 02:58:04;;;;;;;12.43;6.95;;;;;;;;;;4462493;32;20362;-56
2021/08/07 03:00:30;;;;;;;15.48;7.25;;;;;;;;;;4462922;32;20279;-57
2021/08/07 03:02:56;;;;;;;12.18;7.05;;;;;;;;;;4463320;32;20672;-56
2021/08/07 03:05:22;;;;;;;14.05;8.38;;;;;;;;;;4462820;32;20294;-56
2021/08/07 03:07:48;;;;;;;11.38;7.25;;;;;;;;;;4462989;32;20247;-56
2021/08/07 03:10:13;;;;;;;14.75;8.40;;;;;;;;;;4462309;32;20398;-58
2021/08/07 03:12:39;;;;;;;18.98;8.82;;;;;;;;;;4462309;32;20270;-57
2021/08/07 03:15:05;;;;;;;14.02;8.90;;;;;;;;;;4463083;32;20211;-56
2021/08/07 03:17:31;;;;;;;16.58;8.90;;;;;;;;;;4463025;32;20674;-56
2021/08/07 03:19:57;;;;;;;21.95;8.63;;;;;;;;;;4462915;32;20201;-56
2021/08/07 03:22:23;;;;;;;15.30;7.60;;;;;;;;;;4463208;32;20322;-56
2021/08/07 03:24:48;;;;;;;14.70;7.57;;;;;;;;;;4463096;32;20258;-57
2021/08/07 03:27:14;;;;;;;12.68;7.55;;;;;;;;;;4462849;32;20208;-57
2021/08/07 03:29:39;;;;;;;13.45;7.15;;;;;;;;;;4462870;32;20208;-56
2021/08/07 03:32:05;;;;;;;14.60;8.10;;;;;;;;;;4455065;32;20244;-56
2021/08/07 03:34:30;;;;;;;12.20;8.07;;;;;;;;;;4462030;32;20238;-57
2021/08/07 03:36:56;;;;;;;14.73;8.70;;;;;;;;;;4465701;32;20246;-57
2021/08/07 03:39:21;;;;;;;14.60;9.10;;;;;;;;;;4464830;32;20208;-56
2021/08/07 03:41:48;;;;;;;17.17;11.63;;;;;;;;;;4465446;32;20219;-56
2021/08/07 03:44:15;;;;;;;21.30;10.43;;;;;;;;;;4465458;32;20211;-56
2021/08/07 03:46:40;;;;;;;19.73;9.23;;;;;;;;;;4465564;32;20240;-56
2021/08/07 03:49:06;;;;;;;17.80;8.90;;;;;;;;;;4465410;32;20370;-57
2021/08/07 03:51:31;;;;;;;13.50;9.40;;;;;;;;;;4464696;32;20232;-57
2021/08/07 03:53:57;;;;;;;13.13;8.05;;;;;;;;;;4464211;32;20253;-57
2021/08/07 03:56:22;;;;;;;16.00;9.38;;;;;;;;;;4465173;32;20575;-57
2021/08/07 03:58:47;;;;;;;19.30;8.75;;;;;;;;;;4465302;32;20300;-57
2021/08/07 04:01:13;;;;;;;13.55;8.38;;;;;;;;;;4465261;32;20228;-57
2021/08/07 04:03:38;;;;;;;20.10;8.90;;;;;;;;;;4465125;32;20276;-57
2021/08/07 04:06:04;;;;;;;15.68;8.30;;;;;;;;;;4465295;32;20327;-57
2021/08/07 04:08:29;;;;;;;15.68;8.95;;;;;;;;;;4464308;32;20247;-57
2021/08/07 04:10:55;;;;;;;11.25;7.47;;;;;;;;;;4465291;32;20275;-57
2021/08/07 04:13:20;;;;;;;15.10;8.25;;;;;;;;;;4464791;32;20215;-57
2021/08/07 04:15:46;;;;;;;10.95;7.50;;;;;;;;;;4465109;32;20301;-57
2021/08/07 04:18:11;;;;;;;16.02;8.93;;;;;;;;;;4464657;32;20216;-57
2021/08/07 04:20:38;;;;;;;19.87;7.32;;;;;;;;;;4465012;32;20283;-57
2021/08/07 04:23:03;;;;;;;16.67;8.98;;;;;;;;;;4465223;32;20295;-57
2021/08/07 04:25:29;;;;;;;10.38;6.70;;;;;;;;;;4464848;32;20750;-57
2021/08/07 04:27:55;;;;;;;11.82;6.60;;;;;;;;;;4463690;32;20243;-57
2021/08/07 04:30:20;;;;;;;8.65;6.32;;;;;;;;;;4464717;32;20789;-58
2021/08/07 04:32:46;;;;;;;15.52;6.82;;;;;;;;;;4450398;32;20248;-57
2021/08/07 04:35:11;;;;;;;8.18;5.70;;;;;;;;;;4446698;32;20248;-57
2021/08/07 04:37:52;;;;;;;11.27;5.03;;;;;;;;;;4457775;32;20260;-56
2021/08/07 04:40:18;;;;;;;12.57;5.82;;;;;;;;;;4454437;32;20251;-56
2021/08/07 04:42:44;;;;;;;6.70;4.75;;;;;;;;;;4448840;32;20568;-56
2021/08/07 04:45:10;;;;;;;10.50;5.07;;;;;;;;;;4448334;32;20256;-56
2021/08/07 04:47:36;;;;;;;10.40;5.85;;;;;;;;;;4456422;32;20271;-56
2021/08/07 04:50:02;;;;;;;6.80;3.80;;;;;;;;;;4463205;32;20294;-56
2021/08/07 04:52:28;;;;;;;6.18;4.15;;;;;;;;;;4464555;32;20246;-56
2021/08/07 04:54:53;;;;;;;7.95;3.87;;;;;;;;;;4464850;32;20216;-57
2021/08/07 04:57:19;;;;;;;9.88;5.15;;;;;;;;;;4464002;32;20282;-56
2021/08/07 04:59:44;;;;;;;12.00;4.75;;;;;;;;;;4464423;32;20226;-56
2021/08/07 05:02:09;;;;;;;7.40;5.00;;;;;;;;;;4464667;32;20231;-56
2021/08/07 05:04:35;;;;;;;9.25;4.60;;;;;;;;;;4464197;32;20225;-56
2021/08/07 05:07:00;;;;;;;6.85;3.97;;;;;;;;;;4458658;32;20219;-57
2021/08/07 05:09:26;;;;;;;7.05;4.37;;;;;;;;;;4463979;32;20434;-57
2021/08/07 05:11:51;;;;;;;10.27;3.60;;;;;;;;;;4464123;32;20303;-58
2021/08/07 05:14:17;;;;;;;10.48;4.72;;;;;;;;;;4462995;32;20208;-58
2021/08/07 05:16:42;;;;;;;9.38;5.15;;;;;;;;;;4464265;32;20736;-57
2021/08/07 05:19:07;;;;;;;7.37;4.60;;;;;;;;;;4464354;32;20581;-58
2021/08/07 05:21:33;;;;;;;9.90;4.93;;;;;;;;;;4464304;32;20268;-57
2021/08/07 05:23:59;;;;;;;9.95;5.40;;;;;;;;;;4464206;32;20236;-58
2021/08/07 05:26:24;;;;;;;12.88;5.60;;;;;;;;;;4463496;32;20220;-57
2021/08/07 05:28:50;;;;;;;8.85;4.78;;;;;;;;;;4462975;32;20288;-58
2021/08/07 05:31:15;;;;;;;9.20;5.78;;;;;;;;;;4462735;32;20231;-58
2021/08/07 05:33:41;;;;;;;16.08;6.70;;;;;;;;;;4457001;32;20244;-57
2021/08/07 05:36:06;;;;;;;16.05;6.60;;;;;;;;;;4446265;32;20324;-57
2021/08/07 05:38:32;;;;;;;52.85;13.30;;;;;;;;;;4446485;32;20228;-57
2021/08/07 05:40:57;;;;;;;32.80;11.25;;;;;;;;;;4449780;32;20290;-57
2021/08/07 05:43:23;;;;;;;10.50;6.37;;;;;;;;;;4461465;32;20251;-58
2021/08/07 05:45:48;;;;;;;16.23;6.78;;;;;;;;;;4461158;32;20322;-58
2021/08/07 05:48:14;;;;;;;11.65;6.25;;;;;;;;;;4461156;32;20255;-57
2021/08/07 05:50:39;;;;;;;9.38;5.53;;;;;;;;;;4463877;32;20270;-57
2021/08/07 05:53:05;;;;;;;11.12;6.10;;;;;;;;;;4463420;32;20320;-57
2021/08/07 05:55:31;;;;;;;8.40;6.20;;;;;;;;;;4462042;32;20248;-57
2021/08/07 05:57:58;;;;;;;8.57;6.07;;;;;;;;;;4460121;32;20342;-57
2021/08/07 06:00:24;;;;;;;9.00;5.60;;;;;;;;;;4461204;32;20277;-57
2021/08/07 06:02:49;;;;;;;13.85;5.57;;;;;;;;;;4461871;32;20263;-57
2021/08/07 06:05:14;;;;;;;10.48;5.43;;;;;;;;;;4461792;32;20236;-57
2021/08/07 06:07:40;;;;;;;7.32;5.15;;;;;;;;;;4460912;32;20232;-57
2021/08/07 06:10:06;;;;;;;14.30;5.93;;;;;;;;;;4459541;32;20595;-58
2021/08/07 06:12:32;;;;;;;9.20;5.45;;;;;;;;;;4459976;32;20231;-57
2021/08/07 06:14:57;;;;;;;10.80;5.57;;;;;;;;;;4458616;32;20772;-57
2021/08/07 06:17:22;;;;;;;12.65;6.15;;;;;;;;;;4459742;32;20836;-57
2021/08/07 06:19:48;;;;;;;19.35;5.60;;;;;;;;;;4460023;32;20623;-57
2021/08/07 06:22:13;;;;;;;10.10;5.80;;;;;;;;;;4458636;32;20263;-57
2021/08/07 06:24:39;;;;;;;10.82;5.20;;;;;;;;;;4461188;32;20259;-57
2021/08/07 06:27:05;;;;;;;8.90;5.55;;;;;;;;;;4463315;32;20266;-57
2021/08/07 06:29:31;;;;;;;7.35;4.43;;;;;;;;;;4463668;32;20219;-58
2021/08/07 06:31:57;;;;;;;9.48;4.62;;;;;;;;;;4463753;32;20267;-58
2021/08/07 06:34:22;;;;;;;14.07;4.70;;;;;;;;;;4463472;32;20343;-58
2021/08/07 06:36:48;;;;;;;7.15;4.87;;;;;;;;;;4462549;32;20311;-58
2021/08/07 06:39:13;;;;;;;11.90;4.45;;;;;;;;;;4462943;32;20730;-56
2021/08/07 06:41:38;;;;;;;10.15;4.28;;;;;;;;;;4462283;32;20232;-57
2021/08/07 06:44:04;;;;;;;10.55;4.85;;;;;;;;;;4463088;32;20224;-56
2021/08/07 06:46:29;;;;;;;8.02;5.30;;;;;;;;;;4462474;32;20312;-56
2021/08/07 06:48:55;;;;;;;6.50;3.80;;;;;;;;;;4463424;32;20238;-56
2021/08/07 06:51:21;;;;;;;6.82;4.55;;;;;;;;;;4463498;32;20258;-57
2021/08/07 06:53:46;;;;;;;9.60;4.82;;;;;;;;;;4461841;32;20675;-57
2021/08/07 06:56:12;;;;;;;7.87;4.45;;;;;;;;;;4463064;32;20682;-56
2021/08/07 06:58:37;;;;;;;7.95;4.68;;;;;;;;;;4463449;32;20208;-56
2021/08/07 07:01:02;;;;;;;7.03;3.35;;;;;;;;;;4462560;32;20306;-56
2021/08/07 07:03:28;;;;;;;7.45;3.83;;;;;;;;;;4463035;32;20217;-56
2021/08/07 07:05:53;;;;;;;7.00;3.42;;;;;;;;;;4463222;32;20272;-56
2021/08/07 07:08:19;;;;;;;7.55;4.22;;;;;;;;;;4464035;32;20234;-57
2021/08/07 07:10:46;;;;;;;11.40;5.03;;;;;;;;;;4466105;32;20297;-57
2021/08/07 07:13:12;;;;;;;10.25;4.60;;;;;;;;;;4465508;32;20307;-56
2021/08/07 07:15:38;;;;;;;8.80;3.40;;;;;;;;;;4466057;32;20239;-58
2021/08/07 07:18:03;;;;;;;12.85;3.78;;;;;;;;;;4465914;32;20232;-57
2021/08/07 07:20:29;;;;;;;8.38;3.45;;;;;;;;;;4466362;32;20617;-57
2021/08/07 07:22:54;;;;;;;9.05;3.58;;;;;;;;;;4465807;32;20367;-57
2021/08/07 07:25:20;;;;;;;8.95;3.40;;;;;;;;;;4464734;32;20337;-57
2021/08/07 07:27:46;;;;;;;10.50;4.12;;;;;;;;;;4466001;32;20258;-57
2021/08/07 07:30:13;;;;;;;5.50;3.22;;;;;;;;;;4465652;32;20292;-58
2021/08/07 07:32:38;;;;;;;6.95;2.72;;;;;;;;;;4461673;32;20220;-56
2021/08/07 07:35:05;;;;;;;7.12;2.40;;;;;;;;;;4465668;32;20226;-56
2021/08/07 07:37:30;;;;;;;5.25;2.50;;;;;;;;;;4465935;32;20634;-56
2021/08/07 07:39:56;;;;;;;4.20;2.15;;;;;;;;;;4465149;32;20227;-56
2021/08/07 07:42:22;;;;;;;3.53;1.80;;;;;;;;;;4465850;32;20250;-56
2021/08/07 07:44:47;;;;;;;6.95;2.17;;;;;;;;;;4465695;32;20296;-57
2021/08/07 07:47:13;;;;;;;2.95;1.70;;;;;;;;;;4465994;32;20318;-57
2021/08/07 07:49:38;;;;;;;3.03;2.72;;;;;;;;;;4464546;32;20228;-57
2021/08/07 07:52:04;;;;;;;2.47;1.42;;;;;;;;;;4464805;32;20303;-57
2021/08/07 07:54:29;;;;;;;1.83;1.27;;;;;;;;;;4465329;32;20569;-57
2021/08/07 07:56:55;;;;;;;1.75;1.17;;;;;;;;;;4465625;32;20227;-56
2021/08/07 07:59:20;;;;;;;2.33;0.98;;;;;;;;;;4464507;32;20242;-56
2021/08/07 08:01:46;;;;;;;2.58;1.25;;;;;;;;;;4465243;32;20370;-57
2021/08/07 08:04:11;;;;;;;1.77;1.37;;;;;;;;;;4464392;32;20308;-56
2021/08/07 08:06:37;;;;;;;1.00;0.90;;;;;;;;;;4465778;32;20368;-56
2021/08/07 08:09:03;;;;;;;1.98;1.15;;;;;;;;;;4465165;32;20282;-56
2021/08/07 08:11:28;;;;;;;1.42;1.10;;;;;;;;;;4464732;32;20344;-56
2021/08/07 08:13:53;;;;;;;2.05;1.37;;;;;;;;;;4464960;32;20255;-56
2021/08/07 08:16:19;;;;;;;1.40;1.23;;;;;;;;;;4465477;32;20215;-56
2021/08/07 08:18:45;;;;;;;2.97;1.15;;;;;;;;;;4465187;32;20239;-56
2021/08/07 08:21:10;;;;;;;2.15;0.93;;;;;;;;;;4463265;32;20244;-57
2021/08/07 08:23:36;;;;;;;1.95;1.00;;;;;;;;;;4465399;32;20578;-57
2021/08/07 08:26:02;;;;;;;2.00;1.00;;;;;;;;;;4464569;32;20583;-57
2021/08/07 08:28:27;;;;;;;0.60;0.60;;;;;;;;;;4458868;32;20667;-57
2021/08/07 08:30:53;;;;;;;2.08;0.90;;;;;;;;;;4454227;32;20295;-57
2021/08/07 08:33:18;;;;;;;3.87;1.30;;;;;;;;;;4448605;32;20288;-57
2021/08/07 08:35:46;;;;;;;1.92;0.98;;;;;;;;;;4458121;32;20220;-57
2021/08/07 08:38:12;;;;;;;1.67;0.90;;;;;;;;;;4465053;32;20278;-57
2021/08/07 08:40:38;;;;;;;1.85;1.00;;;;;;;;;;4450094;32;20248;-56
2021/08/07 08:43:03;;;;;;;1.27;0.85;;;;;;;;;;4449837;32;20563;-56
2021/08/07 08:45:29;;;;;;;1.58;0.90;;;;;;;;;;4464683;32;20286;-56
2021/08/07 08:47:55;;;;;;;1.83;1.20;;;;;;;;;;4465074;32;20279;-57
2021/08/07 08:50:24;;;;;;;1.73;1.02;;;;;;;;;;4465465;32;20644;-56
2021/08/07 08:52:50;;;;;;;1.70;0.98;;;;;;;;;;4464693;32;20633;-56
2021/08/07 08:55:16;;;;;;;2.28;1.02;;;;;;;;;;4464172;32;20259;-58
2021/08/07 08:57:42;;;;;;;1.58;1.10;;;;;;;;;;4465036;32;20242;-57
2021/08/07 09:00:10;;;;;;;1.17;0.82;;;;;;;;;;4465192;32;20347;-57
2021/08/07 09:02:36;;;;;;;1.65;0.80;;;;;;;;;;4464957;32;20228;-57
2021/08/07 09:05:02;;;;;;;1.02;0.88;;;;;;;;;;4463231;32;20220;-57
2021/08/07 09:07:28;;;;;;;0.77;0.60;;;;;;;;;;4463312;32;20250;-58
2021/08/07 09:09:55;;;;;;;5.45;1.00;;;;;;;;;;4462283;32;20614;-57
2021/08/07 09:13:00;;;;;;;0.88;0.82;;;;;;;;;;4464850;32;20292;-58
2021/08/07 09:15:40;;;;;;;1.00;0.73;;;;;;;;;;4401146;32;20244;-58
2021/08/07 09:18:14;;;;;;;1.92;1.17;;;;;;;;;;4400627;32;20293;-57
2021/08/07 09:20:43;;;;;;;3.92;0.88;;;;;;;;;;4424817;32;20204;-57
2021/08/07 09:23:09;;;;;;;0.70;0.62;;;;;;;;;;4448946;32;20221;-57
2021/08/07 09:25:36;;;;;;;0.77;0.55;;;;;;;;;;4453426;32;20309;-57
2021/08/07 09:28:02;;;;;;;1.30;0.50;;;;;;;;;;4448980;32;20323;-57
2021/08/07 09:30:34;;;;;;;1.70;1.00;;;;;;;;;;4449215;32;20288;-58
2021/08/07 09:33:12;;;;;;;2.22;1.10;;;;;;;;;;4460675;32;20352;-57
2021/08/07 09:35:45;;;;;;;1.02;0.68;;;;;;;;;;4464486;32;20207;-57
2021/08/07 09:38:20;;;;;;;2.00;1.02;;;;;;;;;;4464347;32;20264;-58
2021/08/07 09:40:48;;;;;;;0.90;0.70;;;;;;;;;;4463089;32;20287;-58
2021/08/07 09:43:17;;;;;;;0.73;0.65;;;;;;;;;;4464090;32;20287;-58
2021/08/07 09:45:43;;;;;;;3.72;0.90;;;;;;;;;;4464249;32;20305;-58
2021/08/07 09:48:11;;;;;;;1.08;0.80;;;;;;;;;;4463976;32;20240;-58
2021/08/07 09:50:37;;;;;;;2.55;1.20;;;;;;;;;;4463871;32;20259;-57
2021/08/07 09:53:05;;;;;;;2.00;0.73;;;;;;;;;;4462965;32;20329;-57
2021/08/07 09:55:31;;;;;;;1.37;0.80;;;;;;;;;;4463267;32;20212;-58
2021/08/07 09:58:02;;;;;;;1.60;0.77;;;;;;;;;;4464304;32;20247;-58
2021/08/07 10:00:35;;;;;;;0.60;0.50;;;;;;;;;;4464479;32;20205;-57
2021/08/07 10:03:15;;;;;;;0.85;0.60;;;;;;;;;;4463677;32;20255;-57
2021/08/07 10:05:41;;;;;;;3.15;0.70;;;;;;;;;;4464407;32;20226;-57
2021/08/07 10:08:07;;;;;;;1.00;0.60;;;;;;;;;;4449899;32;20292;-57
2021/08/07 10:10:34;;;;;;;0.82;0.60;;;;;;;;;;4463954;32;20666;-58
2021/08/07 10:13:00;;;;;;;1.15;0.60;;;;;;;;;;4463471;32;20490;-56
2021/08/07 10:15:27;;;;;;;0.70;0.70;;;;;;;;;;4464153;32;20208;-57
2021/08/07 10:17:55;;;;;;;1.40;0.65;;;;;;;;;;4463914;32;20637;-56
2021/08/07 10:20:21;;;;;;;0.70;0.50;;;;;;;;;;4462750;32;20651;-57
2021/08/07 10:22:49;;;;;;;0.60;0.60;;;;;;;;;;4457529;32;20618;-57
2021/08/07 10:25:15;;;;;;;1.08;0.62;;;;;;;;;;4462825;32;20280;-56
2021/08/07 10:27:42;;;;;;;0.95;0.65;;;;;;;;;;4464016;32;20236;-56
2021/08/07 10:30:11;;;;;;;1.02;0.60;;;;;;;;;;4462730;32;20271;-56
2021/08/07 10:32:44;;;;;;;0.50;0.50;;;;;;;;;;4463883;32;20262;-56
2021/08/07 10:35:11;;;;;;;0.93;0.65;;;;;;;;;;4463575;32;20220;-56
2021/08/07 10:37:38;;;;;;;1.17;0.77;;;;;;;;;;4463528;32;20524;-57
2021/08/07 10:40:05;;;;;;;0.70;0.70;;;;;;;;;;4455302;32;20508;-57
2021/08/07 10:42:32;;;;;;;0.90;0.60;;;;;;;;;;4451006;32;20228;-57
2021/08/07 10:44:58;;;;;;;0.68;0.68;;;;;;;;;;4465086;32;20219;-57
2021/08/07 10:47:37;;;;;;;1.58;0.73;;;;;;;;;;4466707;32;20322;-56
2021/08/07 10:50:25;;;;;;;1.37;0.68;;;;;;;;;;4466502;32;20706;-57
2021/08/07 10:52:58;;;;;;;1.42;0.80;;;;;;;;;;4466113;32;20258;-57
2021/08/07 10:55:42;;;;;;;0.40;0.40;;;;;;;;;;4465605;32;20339;-56
2021/08/07 10:58:31;;;;;;;1.98;0.80;;;;;;;;;;4466687;32;20655;-57
2021/08/07 11:01:25;;;;;;;0.60;0.60;;;;;;;;;;4456614;32;20700;-57
2021/08/07 11:03:52;;;;;;;0.62;0.40;;;;;;;;;;4451148;32;20649;-57
2021/08/07 11:06:18;;;;;;;2.97;1.33;;;;;;;;;;4451067;32;20329;-57
2021/08/07 11:08:45;;;;;;;2.10;1.40;;;;;;;;;;4450824;32;20235;-56
2021/08/07 11:11:30;;;;;;;0.50;0.50;;;;;;;;;;4451373;32;20228;-57
2021/08/07 11:14:21;;;;;;;0.85;0.75;;;;;;;;;;4450751;32;20204;-57
2021/08/07 11:17:05;;;;;;;0.85;0.60;;;;;;;;;;4449389;32;20768;-56
2021/08/07 11:19:48;;;;;;;0.82;0.70;;;;;;;;;;4450859;32;20208;-56
2021/08/07 11:22:14;;;;;;;1.17;0.80;;;;;;;;;;4464235;32;20299;-56
2021/08/07 11:25:06;;;;;;;0.98;0.62;;;;;;;;;;4464820;32;20656;-56
2021/08/07 11:27:48;;;;;;;0.60;0.60;;;;;;;;;;4466440;32;20219;-56
2021/08/07 11:30:16;;;;;;;0.93;0.73;;;;;;;;;;4466270;32;20347;-57
2021/08/07 11:33:03;;;;;;;1.40;0.60;;;;;;;;;;4465669;32;20571;-57
2021/08/07 11:35:35;;;;;;;0.90;0.70;;;;;;;;;;4452566;32;20731;-57
2021/08/07 11:38:03;;;;;;;0.60;0.60;;;;;;;;;;4450870;32;20224;-57
2021/08/07 11:40:58;;;;;;;0.50;0.50;;;;;;;;;;4459864;32;21271;-57
2021/08/07 11:43:28;;;;;;;1.33;0.57;;;;;;;;;;4458558;32;20319;-57
2021/08/07 11:45:54;;;;;;;0.50;0.50;;;;;;;;;;4466094;32;20220;-58
2021/08/07 11:48:23;;;;;;;0.70;0.55;;;;;;;;;;4465666;32;20707;-58
2021/08/07 11:50:49;;;;;;;0.50;0.50;;;;;;;;;;4465841;32;20279;-59
2021/08/07 11:53:16;;;;;;;1.35;0.70;;;;;;;;;;4465888;32;20224;-57
2021/08/07 11:55:42;;;;;;;1.37;0.95;;;;;;;;;;4464888;32;20216;-57
2021/08/07 11:58:15;;;;;;;0.65;0.60;;;;;;;;;;4465479;32;20331;-58
2021/08/07 12:00:41;;;;;;;0.57;0.50;;;;;;;;;;4466380;32;20180;-58
2021/08/07 12:03:08;;;;;;;0.55;0.55;;;;;;;;;;4465407;32;20300;-57
2021/08/07 12:05:36;;;;;;;0.85;0.60;;;;;;;;;;4465862;32;20325;-57
2021/08/07 12:08:07;;;;;;;0.80;0.60;;;;;;;;;;4465508;32;20243;-57
2021/08/07 12:10:35;;;;;;;0.50;0.50;;;;;;;;;;4465629;32;20263;-57
2021/08/07 12:13:00;;;;;;;1.05;0.85;;;;;;;;;;4463107;32;20263;-57
2021/08/07 12:15:27;;;;;;;0.70;0.60;;;;;;;;;;4465352;32;20601;-58
2021/08/07 12:17:52;;;;;;;1.23;0.50;;;;;;;;;;4465180;32;20572;-57
2021/08/07 12:20:19;;;;;;;1.23;0.65;;;;;;;;;;4465680;32;20278;-57
2021/08/07 12:23:01;;;;;;;0.50;0.50;;;;;;;;;;4464082;32;20250;-57
2021/08/07 12:25:27;;;;;;;1.27;0.65;;;;;;;;;;4464451;32;20601;-57
2021/08/07 12:28:17;;;;;;;0.75;0.60;;;;;;;;;;4464301;32;20333;-57
2021/08/07 12:31:02;;;;;;;1.00;0.43;;;;;;;;;;4465469;32;20253;-56
2021/08/07 12:33:31;;;;;;;1.35;1.00;;;;;;;;;;4448994;32;20303;-57
2021/08/07 12:35:56;;;;;;;0.70;0.57;;;;;;;;;;4460206;32;20572;-57
2021/08/07 12:38:28;;;;;;;1.55;0.73;;;;;;;;;;4463197;32;20249;-57
2021/08/07 12:40:58;;;;;;;0.80;0.55;;;;;;;;;;4450164;32;20357;-57
2021/08/07 12:43:32;;;;;;;0.40;0.37;;;;;;;;;;4447693;32;20252;-57
2021/08/07 12:46:01;;;;;;;1.25;0.75;;;;;;;;;;4454353;32;20263;-57
2021/08/07 12:48:27;;;;;;;0.68;0.60;;;;;;;;;;4463201;32;20262;-57
2021/08/07 12:51:01;;;;;;;1.10;0.60;;;;;;;;;;4463840;32;20375;-57
2021/08/07 12:53:41;;;;;;;1.08;0.70;;;;;;;;;;4465186;32;20740;-56
2021/08/07 12:56:07;;;;;;;0.55;0.50;;;;;;;;;;4449141;32;20229;-56
2021/08/07 12:58:32;;;;;;;1.25;0.70;;;;;;;;;;4462738;32;20264;-58
2021/08/07 13:01:16;;;;;;;0.60;0.52;;;;;;;;;;4464749;32;20688;-57
2021/08/07 13:03:58;;;;;;;1.83;1.00;;;;;;;;;;4464739;32;20576;-57
2021/08/07 13:06:25;;;;;;;0.98;0.60;;;;;;;;;;4464794;32;20322;-57
2021/08/07 13:08:51;;;;;;;0.47;0.47;;;;;;;;;;4464589;32;20219;-57
2021/08/07 13:11:21;;;;;;;0.65;0.57;;;;;;;;;;4449409;32;20229;-57
2021/08/07 13:13:57;;;;;;;0.90;0.80;;;;;;;;;;4449210;32;20628;-57
2021/08/07 13:16:46;;;;;;;1.02;0.68;;;;;;;;;;4458686;32;20250;-57
2021/08/07 13:19:23;;;;;;;0.50;0.50;;;;;;;;;;4464842;32;20595;-58
2021/08/07 13:21:52;;;;;;;0.68;0.65;;;;;;;;;;4464645;32;20306;-57
2021/08/07 13:24:34;;;;;;;0.50;0.50;;;;;;;;;;4463574;32;20311;-58
2021/08/07 13:27:03;;;;;;;1.10;0.90;;;;;;;;;;4464698;32;20663;-58
2021/08/07 13:29:29;;;;;;;0.93;0.52;;;;;;;;;;4464419;32;20251;-57
2021/08/07 13:31:55;;;;;;;0.50;0.50;;;;;;;;;;4464358;32;20238;-57
2021/08/07 13:34:25;;;;;;;0.73;0.52;;;;;;;;;;4464759;32;20205;-57
2021/08/07 13:36:50;;;;;;;3.10;0.65;;;;;;;;;;4464577;32;20548;-57
2021/08/07 13:39:16;;;;;;;0.75;0.55;;;;;;;;;;4463699;32;20192;-57
2021/08/07 13:41:43;;;;;;;0.50;0.50;;;;;;;;;;4464424;32;20232;-56
2021/08/07 13:44:09;;;;;;;0.77;0.68;;;;;;;;;;4464187;32;20236;-57
2021/08/07 13:46:35;;;;;;;1.90;0.70;;;;;;;;;;4464459;32;20664;-56
2021/08/07 13:49:02;;;;;;;1.12;0.77;;;;;;;;;;4464322;32;20235;-56
2021/08/07 13:51:27;;;;;;;1.15;0.85;;;;;;;;;;4462996;32;20236;-56
2021/08/07 13:53:53;;;;;;;0.50;0.50;;;;;;;;;;4464021;32;20744;-57
2021/08/07 13:56:18;;;;;;;0.68;0.50;;;;;;;;;;4464075;32;20592;-57
2021/08/07 13:58:44;;;;;;;0.90;0.70;;;;;;;;;;4463739;32;20525;-56
2021/08/07 14:01:10;;;;;;;0.50;0.50;;;;;;;;;;4463820;32;20219;-56
2021/08/07 14:03:35;;;;;;;0.60;0.60;;;;;;;;;;4463811;32;20342;-57
2021/08/07 14:06:04;;;;;;;0.75;0.70;;;;;;;;;;4458661;32;20232;-57
2021/08/07 14:08:30;;;;;;;1.95;0.75;;;;;;;;;;4448236;32;20309;-58
2021/08/07 14:10:56;;;;;;;1.52;0.62;;;;;;;;;;4448307;32;20240;-57
2021/08/07 14:13:22;;;;;;;0.60;0.50;;;;;;;;;;4448752;32;20213;-57
2021/08/07 14:15:47;;;;;;;0.47;0.47;;;;;;;;;;4448301;32;20681;-57
2021/08/07 14:18:13;;;;;;;1.08;0.82;;;;;;;;;;4447849;32;20224;-57
2021/08/07 14:20:39;;;;;;;0.60;0.60;;;;;;;;;;4448319;32;20267;-57
2021/08/07 14:23:05;;;;;;;0.52;0.52;;;;;;;;;;4448399;32;20532;-57
2021/08/07 14:25:31;;;;;;;3.20;0.90;;;;;;;;;;4448387;32;20326;-57
2021/08/07 14:27:57;;;;;;;0.50;0.50;;;;;;;;;;4447157;32;20244;-57
2021/08/07 14:30:24;;;;;;;0.70;0.50;;;;;;;;;;4448961;32;20720;-58
2021/08/07 14:32:50;;;;;;;1.35;0.75;;;;;;;;;;4460429;32;20231;-57
2021/08/07 14:35:16;;;;;;;1.17;0.88;;;;;;;;;;4462693;32;20311;-58
2021/08/07 14:37:42;;;;;;;1.30;0.65;;;;;;;;;;4463911;32;20332;-57
2021/08/07 14:40:08;;;;;;;1.00;0.70;;;;;;;;;;4455456;32;20228;-57
2021/08/07 14:42:33;;;;;;;0.90;0.70;;;;;;;;;;4447005;32;20709;-59